createdAt,value
2023-05-24T16:03:50.936Z,4.70
2023-05-24T16:06:21.533Z,5.03
2023-05-24T16:08:50.676Z,5.95
2023-05-24T16:11:26.190Z,18.17
2023-05-24T16:13:55.051Z,8.75
2023-05-24T16:16:23.933Z,6.05
2023-05-24T16:18:51.864Z,6.03
2023-05-24T16:21:19.334Z,6.78
2023-05-24T16:23:47.013Z,5.95
2023-05-24T16:26:14.546Z,5.95
2023-05-24T16:28:42.037Z,5.43
2023-05-24T16:31:09.923Z,4.90
2023-05-24T16:33:40.355Z,5.10
2023-05-24T16:36:08.191Z,5.72
2023-05-24T16:38:38.616Z,5.55
2023-05-24T16:41:07.001Z,5.70
2023-05-24T16:43:34.749Z,5.50
2023-05-24T16:46:02.649Z,5.70
2023-05-24T16:48:31.958Z,6.15
2023-05-24T16:50:59.930Z,5.53
2023-05-24T16:53:28.302Z,5.40
2023-05-24T16:55:56.360Z,5.93
2023-05-24T16:58:24.499Z,5.82
2023-05-24T17:00:54.604Z,5.25
2023-05-24T17:03:28.364Z,5.00
2023-05-24T17:06:05.853Z,5.40
2023-05-24T17:08:36.940Z,5.40
2023-05-24T17:11:06.864Z,6.43
2023-05-24T17:13:34.860Z,5.32
2023-05-24T17:16:05.748Z,5.15
2023-05-24T17:18:37.094Z,5.03
2023-05-24T17:21:11.208Z,5.80
2023-05-24T17:23:50.378Z,5.80
2023-05-24T17:26:20.701Z,5.88
2023-05-24T17:28:54.127Z,5.60
2023-05-24T17:31:34.554Z,6.50
2023-05-24T17:34:05.074Z,5.75
2023-05-24T17:36:36.025Z,5.75
2023-05-24T17:39:04.874Z,6.45
2023-05-24T17:41:35.455Z,6.25
2023-05-24T17:44:02.976Z,5.45
2023-05-24T17:46:31.323Z,6.18
2023-05-24T17:49:03.030Z,6.43
2023-05-24T17:51:31.947Z,5.60
2023-05-24T17:53:59.620Z,6.35
2023-05-24T17:56:27.757Z,7.47
2023-05-24T17:58:55.976Z,6.40
2023-05-24T18:01:24.065Z,6.15
2023-05-24T18:03:51.718Z,5.90
2023-05-24T18:06:22.277Z,6.18
2023-05-24T18:08:51.344Z,5.68
2023-05-24T18:11:19.122Z,5.88
2023-05-24T18:13:47.051Z,6.22
2023-05-24T18:16:17.794Z,6.15
2023-05-24T18:18:45.600Z,5.95
2023-05-24T18:21:18.545Z,5.28
2023-05-24T18:23:46.506Z,6.05
2023-05-24T18:26:15.151Z,7.88
2023-05-24T18:28:42.914Z,6.90
2023-05-24T18:31:15.234Z,5.72
2023-05-24T18:33:43.570Z,6.50
2023-05-24T18:36:13.018Z,7.07
2023-05-24T18:38:42.632Z,6.45
2023-05-24T18:41:12.555Z,6.50
2023-05-24T18:43:44.074Z,7.68
2023-05-24T18:46:19.427Z,7.07
2023-05-24T18:49:05.872Z,6.82
2023-05-24T18:51:44.904Z,7.55
2023-05-24T18:54:40.607Z,6.47
2023-05-24T18:57:16.690Z,6.00
2023-05-24T18:59:56.849Z,7.68
2023-05-24T19:17:41.391Z,7.00
2023-05-24T19:20:25.206Z,6.63
2023-05-24T19:22:58.531Z,8.13
2023-05-24T19:25:30.370Z,8.18
2023-05-24T19:28:00.500Z,8.98
2023-05-24T19:30:32.696Z,8.38
2023-05-24T19:33:01.782Z,7.63
2023-05-24T19:35:35.860Z,7.88
2023-05-24T19:38:09.062Z,7.20
2023-05-24T19:40:39.042Z,7.43
2023-05-24T19:43:08.828Z,7.53
2023-05-24T19:45:46.742Z,7.03
2023-05-24T19:48:18.621Z,7.00
2023-05-24T19:50:52.631Z,7.38
2023-05-24T19:53:22.360Z,8.30
2023-05-24T19:55:54.078Z,7.55
2023-05-24T19:58:22.784Z,6.63
2023-05-24T20:00:50.849Z,6.70
2023-05-24T20:03:25.057Z,6.75
2023-05-24T20:05:57.573Z,6.10
2023-05-24T20:08:28.463Z,6.40
2023-05-24T20:11:00.341Z,7.15
2023-05-24T20:13:31.824Z,8.30
2023-05-24T20:16:01.298Z,7.00
2023-05-24T20:18:31.732Z,7.53
2023-05-24T20:21:00.239Z,7.35
2023-05-24T20:23:33.034Z,8.30
2023-05-24T20:26:14.507Z,7.32
2023-05-24T20:28:42.158Z,7.00
2023-05-24T20:31:11.004Z,6.88
2023-05-24T20:33:41.743Z,7.38
2023-05-24T20:36:09.646Z,8.13
2023-05-24T20:38:40.881Z,6.30
2023-05-24T20:41:08.427Z,6.55
2023-05-24T20:43:39.788Z,7.15
2023-05-24T20:46:09.995Z,8.63
2023-05-24T20:48:40.165Z,7.18
2023-05-24T20:51:14.440Z,7.55
2023-05-24T20:53:51.435Z,7.35
2023-05-24T20:56:25.889Z,8.10
2023-05-24T20:58:54.587Z,6.90
2023-05-24T21:01:26.222Z,6.50
2023-05-24T21:03:58.021Z,6.45
2023-05-24T21:06:34.367Z,6.68
2023-05-24T21:09:11.444Z,7.10
2023-05-24T21:11:46.298Z,7.55
2023-05-24T21:14:24.587Z,8.10
2023-05-24T21:16:57.259Z,6.80
2023-05-24T21:19:30.779Z,6.68
2023-05-24T21:21:58.478Z,6.82
2023-05-24T21:24:26.123Z,6.63
2023-05-24T21:26:56.553Z,6.80
2023-05-24T21:29:24.136Z,7.75
2023-05-24T21:31:58.766Z,7.15
2023-05-24T21:34:27.612Z,8.13
2023-05-24T21:37:06.027Z,6.32
2023-05-24T21:39:42.208Z,8.15
2023-05-24T21:42:09.844Z,6.95
2023-05-24T21:44:38.670Z,6.95
2023-05-24T21:47:08.687Z,7.15
2023-05-24T21:49:55.882Z,7.35
2023-05-24T21:52:44.856Z,6.68
2023-05-24T21:55:13.929Z,6.30
2023-05-24T21:57:57.998Z,6.32
2023-05-24T22:00:33.228Z,7.18
2023-05-24T22:03:21.229Z,6.28
2023-05-24T22:05:49.834Z,7.13
2023-05-24T22:08:21.151Z,7.70
2023-05-24T22:10:48.741Z,7.93
2023-05-24T22:13:18.654Z,8.05
2023-05-24T22:15:46.172Z,8.50
2023-05-24T22:18:17.897Z,7.82
2023-05-24T22:20:59.287Z,8.00
2023-05-24T22:23:27.590Z,9.38
2023-05-24T22:25:59.018Z,10.23
2023-05-24T22:28:29.216Z,8.88
2023-05-24T22:31:03.146Z,8.88
2023-05-24T22:33:30.823Z,8.75
2023-05-24T22:36:04.002Z,9.07
2023-05-24T22:38:37.424Z,8.48
2023-05-24T22:41:05.100Z,9.43
2023-05-24T22:43:33.709Z,9.45
2023-05-24T22:46:01.266Z,9.38
2023-05-24T22:48:36.032Z,9.63
2023-05-24T22:51:09.064Z,9.48
2023-05-24T22:56:10.727Z,8.48
2023-05-24T22:58:43.628Z,9.10
2023-05-24T23:01:14.426Z,9.70
2023-05-24T23:03:42.142Z,10.07
2023-05-24T23:06:13.586Z,9.13
2023-05-24T23:08:48.024Z,9.20
2023-05-24T23:11:17.505Z,10.82
2023-05-24T23:13:45.476Z,9.07
2023-05-24T23:16:13.169Z,9.88
2023-05-24T23:18:43.162Z,11.77
2023-05-24T23:21:10.849Z,11.43
2023-05-24T23:23:43.440Z,11.43
2023-05-24T23:26:12.243Z,11.77
2023-05-24T23:28:43.593Z,11.27
2023-05-24T23:31:12.087Z,11.68
2023-05-24T23:33:39.675Z,13.70
2023-05-24T23:38:58.071Z,12.98
2023-05-24T23:41:26.651Z,11.95
2023-05-24T23:43:54.210Z,12.60
2023-05-24T23:46:30.887Z,12.38
2023-05-24T23:49:01.051Z,12.80
2023-05-24T23:51:28.718Z,12.10
2023-05-24T23:53:59.136Z,14.05
2023-05-24T23:56:32.037Z,12.73
2023-05-24T23:59:00.154Z,12.93
